sensor_id;sensor_type;location;lat;lon;timestamp;P1;durP1;ratioP1;P2;durP2;ratioP2
19024;SDS011;9645;51.448;6.260;2023-05-07T00:01:47;22.83;;;12.47;;
19024;SDS011;9645;51.448;6.260;2023-05-07T00:04:14;20.43;;;12.73;;
19024;SDS011;9645;51.448;6.260;2023-05-07T00:06:42;22.70;;;13.47;;
19024;SDS011;9645;51.448;6.260;2023-05-07T00:09:10;27.00;;;14.10;;
19024;SDS011;9645;51.448;6.260;2023-05-07T00:11:37;20.33;;;13.50;;
19024;SDS011;9645;51.448;6.260;2023-05-07T00:14:04;26.93;;;14.17;;
19024;SDS011;9645;51.448;6.260;2023-05-07T00:16:32;19.67;;;13.20;;
19024;SDS011;9645;51.448;6.260;2023-05-07T00:18:59;21.70;;;13.07;;
19024;SDS011;9645;51.448;6.260;2023-05-07T00:21:26;19.47;;;12.30;;
19024;SDS011;9645;51.448;6.260;2023-05-07T00:23:55;21.23;;;12.80;;
19024;SDS011;9645;51.448;6.260;2023-05-07T00:26:22;21.77;;;14.07;;
19024;SDS011;9645;51.448;6.260;2023-05-07T00:28:49;24.33;;;13.57;;
19024;SDS011;9645;51.448;6.260;2023-05-07T00:31:16;26.23;;;14.60;;
19024;SDS011;9645;51.448;6.260;2023-05-07T00:33:43;23.00;;;13.10;;
19024;SDS011;9645;51.448;6.260;2023-05-07T00:36:10;23.23;;;13.73;;
19024;SDS011;9645;51.448;6.260;2023-05-07T00:38:37;22.30;;;13.30;;
19024;SDS011;9645;51.448;6.260;2023-05-07T00:41:05;23.10;;;14.00;;
19024;SDS011;9645;51.448;6.260;2023-05-07T00:43:32;19.80;;;13.30;;
19024;SDS011;9645;51.448;6.260;2023-05-07T00:45:59;30.90;;;14.87;;
19024;SDS011;9645;51.448;6.260;2023-05-07T00:48:27;25.67;;;15.47;;
19024;SDS011;9645;51.448;6.260;2023-05-07T00:50:54;26.57;;;15.27;;
19024;SDS011;9645;51.448;6.260;2023-05-07T00:53:21;23.00;;;15.03;;
19024;SDS011;9645;51.448;6.260;2023-05-07T00:55:48;30.60;;;15.37;;
19024;SDS011;9645;51.448;6.260;2023-05-07T00:58:16;27.17;;;15.47;;
19024;SDS011;9645;51.448;6.260;2023-05-07T01:00:44;29.90;;;14.90;;
19024;SDS011;9645;51.448;6.260;2023-05-07T01:03:12;29.40;;;14.27;;
19024;SDS011;9645;51.448;6.260;2023-05-07T01:05:39;31.57;;;15.33;;
19024;SDS011;9645;51.448;6.260;2023-05-07T01:08:08;25.20;;;15.93;;
19024;SDS011;9645;51.448;6.260;2023-05-07T01:10:35;27.00;;;14.70;;
19024;SDS011;9645;51.448;6.260;2023-05-07T01:13:02;27.73;;;14.83;;
19024;SDS011;9645;51.448;6.260;2023-05-07T01:15:31;25.20;;;15.40;;
19024;SDS011;9645;51.448;6.260;2023-05-07T01:17:58;26.90;;;15.30;;
19024;SDS011;9645;51.448;6.260;2023-05-07T01:20:25;22.33;;;14.43;;
19024;SDS011;9645;51.448;6.260;2023-05-07T01:22:54;27.00;;;16.30;;
19024;SDS011;9645;51.448;6.260;2023-05-07T01:25:21;26.77;;;16.37;;
19024;SDS011;9645;51.448;6.260;2023-05-07T01:27:49;32.90;;;15.70;;
19024;SDS011;9645;51.448;6.260;2023-05-07T01:30:16;26.70;;;14.50;;
19024;SDS011;9645;51.448;6.260;2023-05-07T01:32:48;25.50;;;14.87;;
19024;SDS011;9645;51.448;6.260;2023-05-07T01:35:18;28.97;;;15.27;;
19024;SDS011;9645;51.448;6.260;2023-05-07T01:37:47;30.63;;;15.90;;
19024;SDS011;9645;51.448;6.260;2023-05-07T01:40:16;29.47;;;16.67;;
19024;SDS011;9645;51.448;6.260;2023-05-07T01:42:44;24.30;;;14.50;;
19024;SDS011;9645;51.448;6.260;2023-05-07T01:45:13;24.40;;;14.70;;
19024;SDS011;9645;51.448;6.260;2023-05-07T01:47:40;30.30;;;15.57;;
19024;SDS011;9645;51.448;6.260;2023-05-07T01:50:08;28.07;;;15.87;;
19024;SDS011;9645;51.448;6.260;2023-05-07T01:52:36;29.60;;;16.70;;
19024;SDS011;9645;51.448;6.260;2023-05-07T01:55:04;25.20;;;14.17;;
19024;SDS011;9645;51.448;6.260;2023-05-07T01:57:33;26.47;;;15.33;;
19024;SDS011;9645;51.448;6.260;2023-05-07T02:00:00;24.33;;;15.93;;
19024;SDS011;9645;51.448;6.260;2023-05-07T02:02:31;26.50;;;15.60;;
19024;SDS011;9645;51.448;6.260;2023-05-07T02:04:58;24.50;;;14.57;;
19024;SDS011;9645;51.448;6.260;2023-05-07T02:07:26;36.53;;;17.00;;
19024;SDS011;9645;51.448;6.260;2023-05-07T02:09:53;45.73;;;15.90;;
19024;SDS011;9645;51.448;6.260;2023-05-07T02:12:20;26.50;;;15.40;;
19024;SDS011;9645;51.448;6.260;2023-05-07T02:14:48;34.73;;;17.27;;
19024;SDS011;9645;51.448;6.260;2023-05-07T02:17:16;28.33;;;16.67;;
19024;SDS011;9645;51.448;6.260;2023-05-07T02:19:42;27.47;;;17.67;;
19024;SDS011;9645;51.448;6.260;2023-05-07T02:22:09;28.00;;;16.47;;
19024;SDS011;9645;51.448;6.260;2023-05-07T02:24:36;27.50;;;16.47;;
19024;SDS011;9645;51.448;6.260;2023-05-07T02:27:03;29.47;;;16.80;;
19024;SDS011;9645;51.448;6.260;2023-05-07T02:29:31;28.00;;;17.17;;
19024;SDS011;9645;51.448;6.260;2023-05-07T02:31:59;27.50;;;16.27;;
19024;SDS011;9645;51.448;6.260;2023-05-07T02:34:26;28.30;;;17.90;;
19024;SDS011;9645;51.448;6.260;2023-05-07T02:36:53;27.43;;;16.60;;
19024;SDS011;9645;51.448;6.260;2023-05-07T02:39:20;35.13;;;18.50;;
19024;SDS011;9645;51.448;6.260;2023-05-07T02:41:47;35.50;;;17.17;;
19024;SDS011;9645;51.448;6.260;2023-05-07T02:44:14;32.33;;;18.60;;
19024;SDS011;9645;51.448;6.260;2023-05-07T02:46:41;28.93;;;16.40;;
19024;SDS011;9645;51.448;6.260;2023-05-07T02:49:09;30.70;;;17.90;;
19024;SDS011;9645;51.448;6.260;2023-05-07T02:51:36;30.43;;;18.53;;
19024;SDS011;9645;51.448;6.260;2023-05-07T02:54:03;28.93;;;17.90;;
19024;SDS011;9645;51.448;6.260;2023-05-07T02:56:30;32.67;;;18.53;;
19024;SDS011;9645;51.448;6.260;2023-05-07T02:58:57;37.33;;;19.17;;
19024;SDS011;9645;51.448;6.260;2023-05-07T03:01:24;32.37;;;19.00;;
19024;SDS011;9645;51.448;6.260;2023-05-07T03:03:51;35.73;;;19.27;;
19024;SDS011;9645;51.448;6.260;2023-05-07T03:06:20;29.83;;;18.10;;
19024;SDS011;9645;51.448;6.260;2023-05-07T03:08:47;35.30;;;19.73;;
19024;SDS011;9645;51.448;6.260;2023-05-07T03:11:14;31.57;;;19.57;;
19024;SDS011;9645;51.448;6.260;2023-05-07T03:13:40;30.43;;;18.83;;
19024;SDS011;9645;51.448;6.260;2023-05-07T03:16:07;29.63;;;17.60;;
19024;SDS011;9645;51.448;6.260;2023-05-07T03:18:34;36.70;;;19.37;;
19024;SDS011;9645;51.448;6.260;2023-05-07T03:21:01;32.37;;;19.13;;
19024;SDS011;9645;51.448;6.260;2023-05-07T03:23:30;36.40;;;18.27;;
19024;SDS011;9645;51.448;6.260;2023-05-07T03:25:57;33.23;;;18.40;;
19024;SDS011;9645;51.448;6.260;2023-05-07T03:28:24;39.30;;;18.90;;
19024;SDS011;9645;51.448;6.260;2023-05-07T03:30:50;33.67;;;19.30;;
19024;SDS011;9645;51.448;6.260;2023-05-07T03:33:17;31.43;;;19.30;;
19024;SDS011;9645;51.448;6.260;2023-05-07T03:35:44;33.20;;;19.40;;
19024;SDS011;9645;51.448;6.260;2023-05-07T03:38:13;32.13;;;19.60;;
19024;SDS011;9645;51.448;6.260;2023-05-07T03:40:41;30.10;;;18.80;;
19024;SDS011;9645;51.448;6.260;2023-05-07T03:43:08;37.23;;;20.33;;
19024;SDS011;9645;51.448;6.260;2023-05-07T03:45:36;34.50;;;19.27;;
19024;SDS011;9645;51.448;6.260;2023-05-07T03:48:03;30.47;;;17.17;;
19024;SDS011;9645;51.448;6.260;2023-05-07T03:50:30;34.53;;;19.80;;
19024;SDS011;9645;51.448;6.260;2023-05-07T03:52:57;37.67;;;19.10;;
19024;SDS011;9645;51.448;6.260;2023-05-07T03:55:24;42.40;;;21.43;;
19024;SDS011;9645;51.448;6.260;2023-05-07T03:57:53;38.43;;;20.07;;
19024;SDS011;9645;51.448;6.260;2023-05-07T04:00:21;36.73;;;19.93;;
19024;SDS011;9645;51.448;6.260;2023-05-07T04:02:48;35.87;;;19.57;;
19024;SDS011;9645;51.448;6.260;2023-05-07T04:05:15;39.77;;;20.90;;
19024;SDS011;9645;51.448;6.260;2023-05-07T04:07:42;43.50;;;21.50;;
19024;SDS011;9645;51.448;6.260;2023-05-07T04:10:09;37.43;;;21.20;;
19024;SDS011;9645;51.448;6.260;2023-05-07T04:12:36;39.80;;;21.43;;
19024;SDS011;9645;51.448;6.260;2023-05-07T04:15:05;37.63;;;20.57;;
19024;SDS011;9645;51.448;6.260;2023-05-07T04:17:33;36.13;;;20.70;;
19024;SDS011;9645;51.448;6.260;2023-05-07T04:20:00;38.13;;;21.30;;
19024;SDS011;9645;51.448;6.260;2023-05-07T04:22:27;40.93;;;22.23;;
19024;SDS011;9645;51.448;6.260;2023-05-07T04:24:54;38.27;;;21.63;;
19024;SDS011;9645;51.448;6.260;2023-05-07T04:27:21;37.17;;;21.37;;
19024;SDS011;9645;51.448;6.260;2023-05-07T04:29:48;35.83;;;20.37;;
19024;SDS011;9645;51.448;6.260;2023-05-07T04:32:16;45.67;;;22.50;;
19024;SDS011;9645;51.448;6.260;2023-05-07T04:34:43;48.13;;;21.93;;
19024;SDS011;9645;51.448;6.260;2023-05-07T04:37:10;42.93;;;21.37;;
19024;SDS011;9645;51.448;6.260;2023-05-07T04:39:37;45.00;;;20.43;;
19024;SDS011;9645;51.448;6.260;2023-05-07T04:42:04;37.80;;;20.00;;
19024;SDS011;9645;51.448;6.260;2023-05-07T04:44:32;34.90;;;18.87;;
19024;SDS011;9645;51.448;6.260;2023-05-07T04:46:59;36.60;;;18.77;;
19024;SDS011;9645;51.448;6.260;2023-05-07T04:49:28;33.10;;;19.10;;
19024;SDS011;9645;51.448;6.260;2023-05-07T04:51:55;32.90;;;18.50;;
19024;SDS011;9645;51.448;6.260;2023-05-07T04:54:22;36.10;;;20.37;;
19024;SDS011;9645;51.448;6.260;2023-05-07T04:56:48;27.63;;;17.30;;
19024;SDS011;9645;51.448;6.260;2023-05-07T04:59:15;38.20;;;19.03;;
19024;SDS011;9645;51.448;6.260;2023-05-07T05:01:43;29.60;;;17.17;;
19024;SDS011;9645;51.448;6.260;2023-05-07T05:04:10;27.80;;;18.20;;
19024;SDS011;9645;51.448;6.260;2023-05-07T05:06:38;29.40;;;18.07;;
19024;SDS011;9645;51.448;6.260;2023-05-07T05:09:05;32.73;;;18.43;;
19024;SDS011;9645;51.448;6.260;2023-05-07T05:11:32;30.57;;;16.80;;
19024;SDS011;9645;51.448;6.260;2023-05-07T05:13:59;27.23;;;16.57;;
19024;SDS011;9645;51.448;6.260;2023-05-07T05:16:27;32.57;;;18.10;;
19024;SDS011;9645;51.448;6.260;2023-05-07T05:18:54;30.57;;;16.60;;
19024;SDS011;9645;51.448;6.260;2023-05-07T05:21:21;27.33;;;16.50;;
19024;SDS011;9645;51.448;6.260;2023-05-07T05:23:49;30.00;;;14.70;;
19024;SDS011;9645;51.448;6.260;2023-05-07T05:26:17;29.40;;;15.13;;
19024;SDS011;9645;51.448;6.260;2023-05-07T05:28:44;25.73;;;14.13;;
19024;SDS011;9645;51.448;6.260;2023-05-07T05:31:11;26.90;;;13.60;;
19024;SDS011;9645;51.448;6.260;2023-05-07T05:33:39;22.03;;;12.97;;
19024;SDS011;9645;51.448;6.260;2023-05-07T05:36:06;24.53;;;13.50;;
19024;SDS011;9645;51.448;6.260;2023-05-07T05:38:35;21.93;;;13.43;;
19024;SDS011;9645;51.448;6.260;2023-05-07T05:41:04;18.50;;;11.17;;
19024;SDS011;9645;51.448;6.260;2023-05-07T05:43:31;22.13;;;11.97;;
19024;SDS011;9645;51.448;6.260;2023-05-07T05:45:58;17.80;;;11.00;;
19024;SDS011;9645;51.448;6.260;2023-05-07T05:48:25;17.50;;;10.87;;
19024;SDS011;9645;51.448;6.260;2023-05-07T05:50:52;20.80;;;10.37;;
19024;SDS011;9645;51.448;6.260;2023-05-07T05:53:19;23.53;;;10.83;;
19024;SDS011;9645;51.448;6.260;2023-05-07T05:55:46;14.50;;;9.47;;
19024;SDS011;9645;51.448;6.260;2023-05-07T05:58:15;14.50;;;9.00;;
19024;SDS011;9645;51.448;6.260;2023-05-07T06:00:42;17.40;;;10.70;;
19024;SDS011;9645;51.448;6.260;2023-05-07T06:03:10;15.57;;;9.37;;
19024;SDS011;9645;51.448;6.260;2023-05-07T06:05:37;18.00;;;9.70;;
19024;SDS011;9645;51.448;6.260;2023-05-07T06:08:04;15.07;;;8.50;;
19024;SDS011;9645;51.448;6.260;2023-05-07T06:10:31;19.87;;;8.83;;
19024;SDS011;9645;51.448;6.260;2023-05-07T06:12:58;14.87;;;8.83;;
19024;SDS011;9645;51.448;6.260;2023-05-07T06:15:27;13.63;;;8.87;;
19024;SDS011;9645;51.448;6.260;2023-05-07T06:17:54;15.30;;;8.73;;
19024;SDS011;9645;51.448;6.260;2023-05-07T06:20:23;11.17;;;7.77;;
19024;SDS011;9645;51.448;6.260;2023-05-07T06:22:55;16.60;;;8.67;;
19024;SDS011;9645;51.448;6.260;2023-05-07T06:25:21;14.80;;;8.70;;
19024;SDS011;9645;51.448;6.260;2023-05-07T06:27:48;12.00;;;8.10;;
19024;SDS011;9645;51.448;6.260;2023-05-07T06:30:15;18.53;;;8.60;;
19024;SDS011;9645;51.448;6.260;2023-05-07T06:32:44;13.87;;;7.80;;
19024;SDS011;9645;51.448;6.260;2023-05-07T06:35:11;16.23;;;8.00;;
19024;SDS011;9645;51.448;6.260;2023-05-07T06:37:38;13.00;;;8.40;;
19024;SDS011;9645;51.448;6.260;2023-05-07T06:40:07;10.60;;;7.63;;
19024;SDS011;9645;51.448;6.260;2023-05-07T06:42:35;14.47;;;8.30;;
19024;SDS011;9645;51.448;6.260;2023-05-07T06:45:03;12.83;;;8.27;;
19024;SDS011;9645;51.448;6.260;2023-05-07T06:47:30;12.67;;;7.97;;
19024;SDS011;9645;51.448;6.260;2023-05-07T06:49:58;20.40;;;7.47;;
19024;SDS011;9645;51.448;6.260;2023-05-07T06:52:25;16.13;;;8.00;;
19024;SDS011;9645;51.448;6.260;2023-05-07T06:54:52;13.50;;;7.17;;
19024;SDS011;9645;51.448;6.260;2023-05-07T06:57:20;13.73;;;7.93;;
19024;SDS011;9645;51.448;6.260;2023-05-07T06:59:47;14.50;;;7.77;;
19024;SDS011;9645;51.448;6.260;2023-05-07T07:02:14;13.53;;;7.87;;
19024;SDS011;9645;51.448;6.260;2023-05-07T07:04:41;11.27;;;7.93;;
19024;SDS011;9645;51.448;6.260;2023-05-07T07:07:09;10.30;;;7.30;;
19024;SDS011;9645;51.448;6.260;2023-05-07T07:09:36;12.67;;;8.17;;
19024;SDS011;9645;51.448;6.260;2023-05-07T07:12:03;11.30;;;7.57;;
19024;SDS011;9645;51.448;6.260;2023-05-07T07:14:30;11.73;;;7.50;;
19024;SDS011;9645;51.448;6.260;2023-05-07T07:16:57;14.43;;;7.37;;
19024;SDS011;9645;51.448;6.260;2023-05-07T07:19:25;10.83;;;6.50;;
19024;SDS011;9645;51.448;6.260;2023-05-07T07:21:52;15.40;;;7.47;;
19024;SDS011;9645;51.448;6.260;2023-05-07T07:24:21;12.40;;;6.83;;
19024;SDS011;9645;51.448;6.260;2023-05-07T07:26:48;10.57;;;7.10;;
19024;SDS011;9645;51.448;6.260;2023-05-07T07:29:15;20.70;;;7.40;;
19024;SDS011;9645;51.448;6.260;2023-05-07T07:31:43;10.67;;;6.03;;
19024;SDS011;9645;51.448;6.260;2023-05-07T07:34:10;13.30;;;7.07;;
19024;SDS011;9645;51.448;6.260;2023-05-07T07:36:37;9.90;;;6.30;;
19024;SDS011;9645;51.448;6.260;2023-05-07T07:39:04;7.30;;;5.93;;
19024;SDS011;9645;51.448;6.260;2023-05-07T07:41:32;9.20;;;5.90;;
19024;SDS011;9645;51.448;6.260;2023-05-07T07:43:59;6.87;;;6.03;;
19024;SDS011;9645;51.448;6.260;2023-05-07T07:46:28;8.10;;;5.97;;
19024;SDS011;9645;51.448;6.260;2023-05-07T07:48:55;9.67;;;5.63;;
19024;SDS011;9645;51.448;6.260;2023-05-07T07:51:24;10.30;;;5.90;;
19024;SDS011;9645;51.448;6.260;2023-05-07T07:53:51;8.93;;;5.90;;
19024;SDS011;9645;51.448;6.260;2023-05-07T07:56:18;9.07;;;5.70;;
19024;SDS011;9645;51.448;6.260;2023-05-07T07:58:47;6.07;;;4.50;;
19024;SDS011;9645;51.448;6.260;2023-05-07T08:01:14;6.23;;;5.50;;
19024;SDS011;9645;51.448;6.260;2023-05-07T08:03:41;19.70;;;5.50;;
19024;SDS011;9645;51.448;6.260;2023-05-07T08:06:08;12.00;;;5.00;;
19024;SDS011;9645;51.448;6.260;2023-05-07T08:08:35;7.30;;;5.00;;
19024;SDS011;9645;51.448;6.260;2023-05-07T08:11:03;8.40;;;5.00;;
19024;SDS011;9645;51.448;6.260;2023-05-07T08:13:30;5.83;;;4.57;;
19024;SDS011;9645;51.448;6.260;2023-05-07T08:15:59;7.83;;;4.77;;
19024;SDS011;9645;51.448;6.260;2023-05-07T08:18:26;6.33;;;5.17;;
19024;SDS011;9645;51.448;6.260;2023-05-07T08:20:54;14.63;;;5.00;;
19024;SDS011;9645;51.448;6.260;2023-05-07T08:23:21;5.43;;;4.63;;
19024;SDS011;9645;51.448;6.260;2023-05-07T08:25:48;6.27;;;4.60;;
19024;SDS011;9645;51.448;6.260;2023-05-07T08:28:16;5.70;;;4.23;;
19024;SDS011;9645;51.448;6.260;2023-05-07T08:30:44;5.63;;;4.53;;
19024;SDS011;9645;51.448;6.260;2023-05-07T08:33:13;5.43;;;4.23;;
19024;SDS011;9645;51.448;6.260;2023-05-07T08:35:39;7.10;;;4.43;;
19024;SDS011;9645;51.448;6.260;2023-05-07T08:38:06;5.17;;;4.67;;
19024;SDS011;9645;51.448;6.260;2023-05-07T08:40:35;4.70;;;3.83;;
19024;SDS011;9645;51.448;6.260;2023-05-07T08:43:05;6.57;;;4.13;;
19024;SDS011;9645;51.448;6.260;2023-05-07T08:45:33;11.20;;;4.83;;
19024;SDS011;9645;51.448;6.260;2023-05-07T08:48:01;8.80;;;4.57;;
19024;SDS011;9645;51.448;6.260;2023-05-07T08:50:31;5.37;;;4.50;;
19024;SDS011;9645;51.448;6.260;2023-05-07T08:53:02;5.67;;;4.20;;
19024;SDS011;9645;51.448;6.260;2023-05-07T08:55:29;7.97;;;4.67;;
19024;SDS011;9645;51.448;6.260;2023-05-07T08:57:56;4.90;;;4.37;;
19024;SDS011;9645;51.448;6.260;2023-05-07T09:00:23;7.60;;;5.07;;
19024;SDS011;9645;51.448;6.260;2023-05-07T09:02:51;7.20;;;4.60;;
19024;SDS011;9645;51.448;6.260;2023-05-07T09:05:19;6.80;;;4.70;;
19024;SDS011;9645;51.448;6.260;2023-05-07T09:07:47;6.20;;;5.00;;
19024;SDS011;9645;51.448;6.260;2023-05-07T09:10:15;9.47;;;5.37;;
19024;SDS011;9645;51.448;6.260;2023-05-07T09:12:42;6.80;;;4.90;;
19024;SDS011;9645;51.448;6.260;2023-05-07T09:15:09;8.53;;;4.63;;
19024;SDS011;9645;51.448;6.260;2023-05-07T09:17:37;7.70;;;4.80;;
19024;SDS011;9645;51.448;6.260;2023-05-07T09:20:06;12.10;;;5.30;;
19024;SDS011;9645;51.448;6.260;2023-05-07T09:22:35;7.40;;;5.37;;
19024;SDS011;9645;51.448;6.260;2023-05-07T09:25:05;5.60;;;4.93;;
19024;SDS011;9645;51.448;6.260;2023-05-07T09:27:33;10.37;;;5.57;;
19024;SDS011;9645;51.448;6.260;2023-05-07T09:30:02;12.13;;;5.67;;
19024;SDS011;9645;51.448;6.260;2023-05-07T09:32:33;8.93;;;5.20;;
19024;SDS011;9645;51.448;6.260;2023-05-07T09:35:01;8.03;;;5.73;;
19024;SDS011;9645;51.448;6.260;2023-05-07T09:37:28;10.20;;;5.97;;
19024;SDS011;9645;51.448;6.260;2023-05-07T09:39:56;8.20;;;4.93;;
19024;SDS011;9645;51.448;6.260;2023-05-07T09:42:24;9.53;;;5.13;;
19024;SDS011;9645;51.448;6.260;2023-05-07T09:44:52;10.43;;;5.43;;
19024;SDS011;9645;51.448;6.260;2023-05-07T09:47:19;8.47;;;5.10;;
19024;SDS011;9645;51.448;6.260;2023-05-07T09:49:49;7.77;;;4.83;;
19024;SDS011;9645;51.448;6.260;2023-05-07T09:52:20;6.37;;;5.77;;
19024;SDS011;9645;51.448;6.260;2023-05-07T09:54:48;10.30;;;5.60;;
19024;SDS011;9645;51.448;6.260;2023-05-07T09:57:18;8.33;;;4.87;;
19024;SDS011;9645;51.448;6.260;2023-05-07T09:59:48;5.87;;;4.70;;
19024;SDS011;9645;51.448;6.260;2023-05-07T10:02:17;7.77;;;4.90;;
19024;SDS011;9645;51.448;6.260;2023-05-07T10:04:46;8.67;;;5.20;;
19024;SDS011;9645;51.448;6.260;2023-05-07T10:07:15;6.37;;;4.90;;
19024;SDS011;9645;51.448;6.260;2023-05-07T10:09:43;13.43;;;4.87;;
19024;SDS011;9645;51.448;6.260;2023-05-07T10:12:11;8.20;;;4.37;;
19024;SDS011;9645;51.448;6.260;2023-05-07T10:14:38;4.60;;;4.13;;
19024;SDS011;9645;51.448;6.260;2023-05-07T10:17:08;5.47;;;4.10;;
19024;SDS011;9645;51.448;6.260;2023-05-07T10:19:37;7.43;;;4.40;;
19024;SDS011;9645;51.448;6.260;2023-05-07T10:22:05;6.33;;;4.53;;
19024;SDS011;9645;51.448;6.260;2023-05-07T10:24:35;7.37;;;4.30;;
19024;SDS011;9645;51.448;6.260;2023-05-07T10:27:04;13.83;;;5.23;;
19024;SDS011;9645;51.448;6.260;2023-05-07T10:29:36;11.43;;;5.60;;
19024;SDS011;9645;51.448;6.260;2023-05-07T10:32:23;6.70;;;5.10;;
19024;SDS011;9645;51.448;6.260;2023-05-07T10:34:58;6.67;;;4.13;;
19024;SDS011;9645;51.448;6.260;2023-05-07T10:37:28;10.07;;;4.20;;
19024;SDS011;9645;51.448;6.260;2023-05-07T10:39:56;7.37;;;4.50;;
19024;SDS011;9645;51.448;6.260;2023-05-07T10:42:23;6.23;;;3.27;;
19024;SDS011;9645;51.448;6.260;2023-05-07T10:44:50;6.10;;;3.07;;
19024;SDS011;9645;51.448;6.260;2023-05-07T10:47:17;6.43;;;3.43;;
19024;SDS011;9645;51.448;6.260;2023-05-07T10:55:48;2.60;;;1.80;;
19024;SDS011;9645;51.448;6.260;2023-05-07T10:58:22;2.67;;;2.10;;
19024;SDS011;9645;51.448;6.260;2023-05-07T11:00:55;2.20;;;2.00;;
19024;SDS011;9645;51.448;6.260;2023-05-07T11:03:24;4.10;;;2.43;;
19024;SDS011;9645;51.448;6.260;2023-05-07T11:08:52;5.87;;;2.30;;
19024;SDS011;9645;51.448;6.260;2023-05-07T11:11:21;2.80;;;2.57;;
19024;SDS011;9645;51.448;6.260;2023-05-07T11:14:11;7.70;;;4.30;;
19024;SDS011;9645;51.448;6.260;2023-05-07T11:16:38;4.10;;;2.67;;
19024;SDS011;9645;51.448;6.260;2023-05-07T11:19:09;3.00;;;2.70;;
19024;SDS011;9645;51.448;6.260;2023-05-07T11:21:36;7.77;;;3.20;;
19024;SDS011;9645;51.448;6.260;2023-05-07T11:24:05;5.37;;;3.00;;
19024;SDS011;9645;51.448;6.260;2023-05-07T11:26:43;9.60;;;3.53;;
19024;SDS011;9645;51.448;6.260;2023-05-07T11:29:15;6.83;;;4.63;;
19024;SDS011;9645;51.448;6.260;2023-05-07T11:31:43;7.03;;;3.00;;
19024;SDS011;9645;51.448;6.260;2023-05-07T11:34:16;4.53;;;3.00;;
19024;SDS011;9645;51.448;6.260;2023-05-07T11:36:47;5.33;;;3.10;;
19024;SDS011;9645;51.448;6.260;2023-05-07T11:39:25;4.63;;;3.00;;
19024;SDS011;9645;51.448;6.260;2023-05-07T11:41:53;5.53;;;2.87;;
19024;SDS011;9645;51.448;6.260;2023-05-07T11:44:21;4.80;;;3.43;;
19024;SDS011;9645;51.448;6.260;2023-05-07T11:46:48;7.73;;;3.27;;
19024;SDS011;9645;51.448;6.260;2023-05-07T11:49:16;11.50;;;3.60;;
19024;SDS011;9645;51.448;6.260;2023-05-07T11:51:44;4.03;;;2.53;;
19024;SDS011;9645;51.448;6.260;2023-05-07T11:54:11;4.90;;;3.33;;
19024;SDS011;9645;51.448;6.260;2023-05-07T11:56:42;6.97;;;3.07;;
19024;SDS011;9645;51.448;6.260;2023-05-07T11:59:12;7.07;;;3.13;;
19024;SDS011;9645;51.448;6.260;2023-05-07T12:01:45;6.07;;;3.30;;
19024;SDS011;9645;51.448;6.260;2023-05-07T12:04:13;5.63;;;3.27;;
19024;SDS011;9645;51.448;6.260;2023-05-07T12:06:41;5.70;;;3.17;;
19024;SDS011;9645;51.448;6.260;2023-05-07T12:09:08;8.00;;;3.43;;
19024;SDS011;9645;51.448;6.260;2023-05-07T12:11:36;5.00;;;3.10;;
19024;SDS011;9645;51.448;6.260;2023-05-07T12:14:05;8.57;;;3.13;;
19024;SDS011;9645;51.448;6.260;2023-05-07T12:16:32;6.07;;;2.90;;
19024;SDS011;9645;51.448;6.260;2023-05-07T12:18:59;12.03;;;3.83;;
19024;SDS011;9645;51.448;6.260;2023-05-07T12:21:26;8.80;;;3.20;;
19024;SDS011;9645;51.448;6.260;2023-05-07T12:23:55;7.87;;;3.50;;
19024;SDS011;9645;51.448;6.260;2023-05-07T12:26:23;10.97;;;4.30;;
19024;SDS011;9645;51.448;6.260;2023-05-07T12:28:50;4.67;;;3.40;;
19024;SDS011;9645;51.448;6.260;2023-05-07T12:31:17;4.93;;;2.90;;
19024;SDS011;9645;51.448;6.260;2023-05-07T12:33:44;6.73;;;3.63;;
19024;SDS011;9645;51.448;6.260;2023-05-07T12:36:12;6.83;;;3.70;;
19024;SDS011;9645;51.448;6.260;2023-05-07T12:38:39;8.80;;;4.00;;
19024;SDS011;9645;51.448;6.260;2023-05-07T12:41:08;7.90;;;3.97;;
19024;SDS011;9645;51.448;6.260;2023-05-07T12:43:37;6.70;;;3.80;;
19024;SDS011;9645;51.448;6.260;2023-05-07T12:46:05;8.20;;;3.60;;
19024;SDS011;9645;51.448;6.260;2023-05-07T12:48:32;6.47;;;3.90;;
19024;SDS011;9645;51.448;6.260;2023-05-07T12:51:00;7.63;;;4.17;;
19024;SDS011;9645;51.448;6.260;2023-05-07T12:53:27;8.57;;;4.03;;
19024;SDS011;9645;51.448;6.260;2023-05-07T12:55:57;7.20;;;3.97;;
19024;SDS011;9645;51.448;6.260;2023-05-07T12:58:27;6.90;;;3.87;;
19024;SDS011;9645;51.448;6.260;2023-05-07T13:00:56;6.07;;;3.70;;
19024;SDS011;9645;51.448;6.260;2023-05-07T13:03:26;9.30;;;3.97;;
19024;SDS011;9645;51.448;6.260;2023-05-07T13:05:54;9.80;;;4.03;;
19024;SDS011;9645;51.448;6.260;2023-05-07T13:08:25;5.50;;;3.60;;
19024;SDS011;9645;51.448;6.260;2023-05-07T13:10:53;6.97;;;3.70;;
19024;SDS011;9645;51.448;6.260;2023-05-07T13:13:20;7.30;;;4.63;;
19024;SDS011;9645;51.448;6.260;2023-05-07T13:15:48;12.20;;;4.67;;
19024;SDS011;9645;51.448;6.260;2023-05-07T13:18:15;8.40;;;4.10;;
19024;SDS011;9645;51.448;6.260;2023-05-07T13:20:43;9.53;;;3.83;;
19024;SDS011;9645;51.448;6.260;2023-05-07T13:23:10;5.30;;;4.10;;
19024;SDS011;9645;51.448;6.260;2023-05-07T13:25:36;10.10;;;4.53;;
19024;SDS011;9645;51.448;6.260;2023-05-07T13:28:04;5.83;;;4.20;;
19024;SDS011;9645;51.448;6.260;2023-05-07T13:30:31;6.70;;;4.53;;
19024;SDS011;9645;51.448;6.260;2023-05-07T13:32:59;10.57;;;4.90;;
19024;SDS011;9645;51.448;6.260;2023-05-07T13:35:26;6.10;;;4.27;;
19024;SDS011;9645;51.448;6.260;2023-05-07T13:37:53;8.87;;;4.47;;
19024;SDS011;9645;51.448;6.260;2023-05-07T13:40:20;7.87;;;4.50;;
19024;SDS011;9645;51.448;6.260;2023-05-07T13:42:48;10.40;;;3.90;;
19024;SDS011;9645;51.448;6.260;2023-05-07T13:45:15;6.07;;;4.47;;
19024;SDS011;9645;51.448;6.260;2023-05-07T13:47:42;7.03;;;4.13;;
19024;SDS011;9645;51.448;6.260;2023-05-07T13:50:11;7.80;;;4.43;;
19024;SDS011;9645;51.448;6.260;2023-05-07T13:52:40;8.33;;;4.73;;
19024;SDS011;9645;51.448;6.260;2023-05-07T13:55:11;6.73;;;4.90;;
19024;SDS011;9645;51.448;6.260;2023-05-07T13:57:37;14.13;;;5.00;;
19024;SDS011;9645;51.448;6.260;2023-05-07T14:00:06;8.77;;;3.90;;
19024;SDS011;9645;51.448;6.260;2023-05-07T14:02:34;6.77;;;4.57;;
19024;SDS011;9645;51.448;6.260;2023-05-07T14:05:01;13.10;;;4.50;;
19024;SDS011;9645;51.448;6.260;2023-05-07T14:07:30;12.30;;;5.10;;
19024;SDS011;9645;51.448;6.260;2023-05-07T14:09:57;6.53;;;3.47;;
19024;SDS011;9645;51.448;6.260;2023-05-07T14:12:24;8.73;;;4.93;;
19024;SDS011;9645;51.448;6.260;2023-05-07T14:14:52;6.67;;;4.03;;
19024;SDS011;9645;51.448;6.260;2023-05-07T14:17:19;8.40;;;4.93;;
19024;SDS011;9645;51.448;6.260;2023-05-07T14:19:48;6.70;;;4.00;;
19024;SDS011;9645;51.448;6.260;2023-05-07T14:22:15;6.90;;;3.77;;
19024;SDS011;9645;51.448;6.260;2023-05-07T14:24:43;10.70;;;4.67;;
19024;SDS011;9645;51.448;6.260;2023-05-07T14:27:10;4.50;;;3.33;;
19024;SDS011;9645;51.448;6.260;2023-05-07T14:29:37;4.30;;;3.43;;
19024;SDS011;9645;51.448;6.260;2023-05-07T14:32:04;5.50;;;3.70;;
19024;SDS011;9645;51.448;6.260;2023-05-07T14:34:31;4.23;;;3.83;;
19024;SDS011;9645;51.448;6.260;2023-05-07T14:36:59;6.93;;;4.20;;
19024;SDS011;9645;51.448;6.260;2023-05-07T14:39:26;6.60;;;3.90;;
19024;SDS011;9645;51.448;6.260;2023-05-07T14:41:54;6.00;;;4.57;;
19024;SDS011;9645;51.448;6.260;2023-05-07T14:44:23;6.47;;;4.03;;
19024;SDS011;9645;51.448;6.260;2023-05-07T14:46:50;5.80;;;4.10;;
19024;SDS011;9645;51.448;6.260;2023-05-07T14:49:17;6.37;;;4.60;;
19024;SDS011;9645;51.448;6.260;2023-05-07T14:51:44;6.60;;;4.63;;
19024;SDS011;9645;51.448;6.260;2023-05-07T14:54:11;5.57;;;3.73;;
19024;SDS011;9645;51.448;6.260;2023-05-07T14:56:39;8.50;;;4.50;;
19024;SDS011;9645;51.448;6.260;2023-05-07T14:59:08;6.27;;;4.10;;
19024;SDS011;9645;51.448;6.260;2023-05-07T15:01:35;7.67;;;3.90;;